MMMM

General Francisco J. Mujica International Airport

Morelia, Mexico
TAF AMD MMMM 220126Z 2201/2306 09008KT P6SM VC -TSRA BKN025CB OVC080 TEMPO 2201/2203 4SM TSRA FM220400 00000KT P6SM SCT025 BKN220 BECMG 2208/2209 5SM HZ TEMPO 2210/2214 3SM BR HZ FM221700 06008KT P6SM SCT025 PROB40 2222/2303 5SM TSRA BKN020CB BKN080
Issued Valid From Valid To
Sep-22 @ 01:26 UTC
(2 hours ago)
Sep-22 @ 01:00 UTC
(2 hours ago)
Sep-23 @ 06:00 UTC
(-1 days ago)
to
to
to
to
to
to
to
TAF AMD MMMM 220126Z 2201/2306 09008KT P6SM VC -TSRA BKN025CB OVC080 TEMPO 2201/2203 4SM TSRA FM220400 00000KT P6SM SCT025 BKN220 BECMG 2208/2209 5SM HZ TEMPO 2210/2214 3SM BR HZ FM221700 06008KT P6SM SCT025 PROB40 2222/2303 5SM TSRA BKN020CB BKN080
Issued Sep-22 @ 01:26 UTC
(2 hours ago)
Valid From Sep-22 @ 01:00 UTC
(2 hours ago)
Valid To Sep-23 @ 06:00 UTC
(-1 days ago)
-
-
-
-
-
-
-